Flight Track Log - Related Links

Times and Time Zones

All times are in EDT time to prevent confusion due to time zone crossing. See the FFT932 flight status page for this flight to view local times or setup timezone preferences in your user account.


Time Position Orientation Groundspeed Altitude Reporting Facility
EDT Latitude Longitude Course Direction KTS MPH feet Rate Location/Type
Sat 06:10:35 PM 28.0060 -82.5380 326° Northwest 158 182 1,500  Level FlightAware ADS-B
Sat 06:10:55 PM 28.0170 -82.5520 312° West 187 215 1,900 1,050 Climbing FlightAware ADS-B
Sat 06:11:15 PM 28.0300 -82.5670 314° West 215 247 2,200 1,200 Climbing FlightAware ADS-B
Sat 06:11:35 PM 28.0440 -82.5840 313° West 246 283 2,700 1,875 Climbing FlightAware ADS-B
Sat 06:11:47 PM 28.0540 -82.5960 313° West 258 297 3,200 2,647 Climbing FlightAware ADS-B
Sat 06:12:09 PM 28.0740 -82.6190 315° West 273 314 4,200 3,000 Climbing FlightAware ADS-B
Sat 06:12:33 PM 28.0980 -82.6410 321° Northwest 273 314 5,500 3,409 Climbing FlightAware ADS-B
Sat 06:12:53 PM 28.1200 -82.6540 332° Northwest 272 313 6,700 3,375 Climbing FlightAware ADS-B
Sat 06:13:05 PM 28.1340 -82.6610 336° Northwest 277 319 7,300 2,813 Climbing FlightAware ADS-B
Sat 06:13:25 PM 28.1560 -82.6740 332° Northwest 284 327 8,200 2,667 Climbing FlightAware ADS-B
Sat 06:13:41 PM 28.1750 -82.6850 333° Northwest 289 333 8,900 3,000 Climbing FlightAware ADS-B
Sat 06:14:01 PM 28.2010 -82.6990 335° Northwest 292 336 10,000 2,464 Climbing FlightAware ADS-B
Sat 06:14:37 PM 28.2470 -82.7250 334° Northwest 318 366 11,200 1,629 Climbing FlightAware ADS-B
Sat 06:15:11 PM 28.2930 -82.7480 336° Northwest 341 392 11,900 1,371 Climbing FlightAware ADS-B
Sat 06:15:47 PM 28.3480 -82.7750 337° Northwest 357 411 12,800 2,250 Climbing FlightAware ADS-B
Sat 06:16:23 PM 28.4040 -82.7900 347° North 350 403 14,600 2,667 Climbing FlightAware ADS-B
Sat 06:16:59 PM 28.4650 -82.7950 356° North 357 411 16,000 2,400 Climbing FlightAware ADS-B
Sat 06:17:43 PM 28.5380 -82.7970 359° North 362 417 17,800 2,175 Climbing FlightAware ADS-B
Sat 06:18:19 PM 28.5960 -82.7970 360° North 367 422 18,900 1,672 Climbing FlightAware ADS-B
Sat 06:18:44 PM 28.6390 -82.7940 North 375 432 19,500 1,527 Climbing FlightAware ADS-B
Sat 06:19:14 PM 28.6920 -82.7900 North 384 442 20,300 1,754 Climbing FlightAware ADS-B
Sat 06:19:49 PM 28.7550 -82.7860 North 390 449 21,400 1,760 Climbing FlightAware ADS-B
Sat 06:20:29 PM 28.8230 -82.7810 North 385 443 22,500 1,297 Climbing FlightAware ADS-B
Sat 06:21:03 PM 28.8930 -82.7750 North 397 457 23,000 1,075 Climbing FlightAware ADS-B
Sat 06:21:36 PM 28.9540 -82.7710 North 402 463 23,700 1,286 Climbing FlightAware ADS-B
Sat 06:22:13 PM 29.0240 -82.7650 North 413 475 24,500 1,479 Climbing FlightAware ADS-B
Sat 06:22:49 PM 29.0930 -82.7600 North 417 480 25,500 1,775 Climbing FlightAware ADS-B
Sat 06:23:24 PM 29.1610 -82.7550 North 417 480 26,600 1,433 Climbing FlightAware ADS-B
Sat 06:23:56 PM 29.2230 -82.7500 North 426 490 27,100 1,114 Climbing FlightAware ADS-B
Sat 06:24:34 PM 29.2980 -82.7440 North 434 499 27,900 1,233 Climbing FlightAware ADS-B
Sat 06:25:09 PM 29.3660 -82.7390 North 442 509 28,600 1,500 Climbing FlightAware ADS-B
Sat 06:25:42 PM 29.4370 -82.7340 North 441 507 29,600 1,412 Climbing FlightAware ADS-B
Sat 06:26:17 PM 29.5090 -82.7280 North 447 514 30,200 1,000 Climbing FlightAware ADS-B
Sat 06:26:54 PM 29.5860 -82.7220 North 455 524 30,800 1,091 Climbing FlightAware ADS-B
Sat 06:27:23 PM 29.6470 -82.7170 North 455 524 31,400 1,391 Climbing FlightAware ADS-B
Sat 06:28:03 PM 29.7300 -82.7110 North 452 520 32,400 1,280 Climbing FlightAware ADS-B
Sat 06:28:38 PM 29.8050 -82.7050 North 455 524 33,000 1,250 Climbing FlightAware ADS-B
Sat 06:29:15 PM 29.8800 -82.6990 North 450 518 33,900 1,324 Climbing FlightAware ADS-B
Sat 06:29:46 PM 29.9460 -82.6940 North 450 518 34,500 1,147 Climbing FlightAware ADS-B
Sat 06:30:23 PM 30.0240 -82.6890 North 446 513 35,200 1,167 Climbing FlightAware ADS-B
Sat 06:30:58 PM 30.0970 -82.6890 360° North 443 510 35,900 1,250 Climbing FlightAware ADS-B
Sat 06:31:35 PM 30.1690 -82.6880 North 436 502 36,700 957 Climbing FlightAware ADS-B
Sat 06:32:07 PM 30.2350 -82.6880 360° North 439 505 37,000 348 Climbing FlightAware ADS-B
Sat 06:32:44 PM 30.3080 -82.6880 360° North 442 509 37,100 86 Climbing FlightAware ADS-B
Sat 06:33:17 PM 30.3770 -82.6870 North 439 505 37,100  Level FlightAware ADS-B
Sat 06:33:54 PM 30.4510 -82.6750 North 444 511 37,100  Level FlightAware ADS-B
Sat 06:34:30 PM 30.5220 -82.6440 21° North 447 514 37,100  Level FlightAware ADS-B
Sat 06:35:02 PM 30.5840 -82.6160 21° North 446 513 37,100  Level FlightAware ADS-B
Sat 06:35:37 PM 30.6520 -82.5850 21° North 445 512 37,100 -83 Level FlightAware ADS-B
Sat 06:36:14 PM 30.7190 -82.5540 22° Northeast 445 512 37,000 -78 Descending FlightAware ADS-B
Sat 06:36:54 PM 30.7980 -82.5180 21° North 444 511 37,000  Level FlightAware ADS-B
Sat 06:37:26 PM 30.8570 -82.4910 21° North 445 512 37,000 82 Level FlightAware ADS-B
Sat 06:38:07 PM 30.9380 -82.4530 22° Northeast 444 511 37,100 75 Climbing FlightAware ADS-B
Sat 06:38:46 PM 31.0130 -82.4180 22° Northeast 444 511 37,100  Level FlightAware ADS-B
Sat 06:39:23 PM 31.0830 -82.3860 21° North 443 510 37,100  Level FlightAware ADS-B
Sat 06:39:59 PM 31.1520 -82.3540 22° Northeast 443 510 37,100 -85 Level FlightAware ADS-B
Sat 06:40:34 PM 31.2180 -82.3230 22° Northeast 442 509 37,000 -70 Descending FlightAware ADS-B
Sat 06:41:25 PM 31.3090 -82.2810 22° Northeast 442 509 37,000 67 Level FlightAware ADS-B
Sat 06:42:03 PM 31.3850 -82.2450 22° Northeast 442 509 37,100 76 Climbing FlightAware ADS-B
Sat 06:42:44 PM 31.4640 -82.2080 22° Northeast 442 509 37,100  Level FlightAware ADS-B
Sat 06:43:32 PM 31.5490 -82.1690 21° North 440 506 37,100  Level FlightAware ADS-B
Sat 06:44:08 PM 31.6070 -82.1430 21° North 440 506 37,100  Level FlightAware ADS-B
Sat 06:44:44 PM 31.6900 -82.1020 23° Northeast 432 497 37,100 -76 Level FlightAware ADS-B
Sat 06:45:27 PM 31.7720 -82.0630 22° Northeast 428 493 37,000 -82 Descending FlightAware ADS-B
Sat 06:45:57 PM 31.8260 -82.0370 22° Northeast 427 491 37,000  Level FlightAware ADS-B
Sat 06:46:33 PM 31.8890 -82.0080 21° North 426 490 37,000  Level FlightAware ADS-B
Sat 06:47:31 PM 31.9910 -81.9600 22° Northeast 426 490 37,000  Level FlightAware ADS-B
Sat 06:48:05 PM 32.0440 -81.9340 23° Northeast 426 490 37,000 83 Level FlightAware ADS-B
Sat 06:48:43 PM 32.1290 -81.8940 22° Northeast 427 491 37,100 80 Climbing FlightAware ADS-B
Sat 06:49:20 PM 32.1970 -81.8620 22° Northeast 426 490 37,100  Level FlightAware ADS-B
Sat 06:49:51 PM 32.2550 -81.8340 22° Northeast 425 489 37,100  Level FlightAware ADS-B
Sat 06:50:26 PM 32.3180 -81.8040 22° Northeast 423 487 37,100 -86 Level FlightAware ADS-B
Sat 06:51:01 PM 32.3820 -81.7710 24° Northeast 423 487 37,000 -88 Descending FlightAware ADS-B
Sat 06:51:34 PM 32.4380 -81.7330 30° Northeast 423 487 37,000  Level FlightAware ADS-B
Sat 06:52:12 PM 32.5010 -81.6880 31° Northeast 423 487 37,000  Level FlightAware ADS-B
Sat 06:52:49 PM 32.5640 -81.6430 31° Northeast 425 489 37,000  Level FlightAware ADS-B
Sat 06:53:24 PM 32.6230 -81.6010 31° Northeast 425 489 37,000 88 Level FlightAware ADS-B
Sat 06:53:57 PM 32.6790 -81.5610 31° Northeast 426 490 37,100 88 Climbing FlightAware ADS-B
Sat 06:54:32 PM 32.7360 -81.5200 31° Northeast 428 493 37,100  Level FlightAware ADS-B
Sat 06:55:10 PM 32.8030 -81.4720 31° Northeast 429 494 37,100  Level FlightAware ADS-B
Sat 06:55:41 PM 32.8540 -81.4350 31° Northeast 429 494 37,100  Level FlightAware ADS-B
Sat 06:56:16 PM 32.9140 -81.3910 32° Northeast 429 494 37,100  Level FlightAware ADS-B
Sat 06:56:48 PM 32.9670 -81.3530 31° Northeast 428 493 37,100  Level FlightAware ADS-B
Sat 06:57:27 PM 33.0350 -81.3040 31° Northeast 429 494 37,100  Level FlightAware ADS-B
Sat 06:58:02 PM 33.0940 -81.2610 31° Northeast 429 494 37,100  Level FlightAware ADS-B
Sat 06:58:39 PM 33.1560 -81.2160 31° Northeast 428 493 37,100 -85 Level FlightAware ADS-B
Sat 06:59:13 PM 33.2150 -81.1730 31° Northeast 427 491 37,000  Descending FlightAware ADS-B
Sat 06:59:44 PM 33.2670 -81.1360 31° Northeast 427 491 37,100 86 Climbing FlightAware ADS-B
Sat 07:00:23 PM 33.3320 -81.0880 32° Northeast 426 490 37,100 -80 Level FlightAware ADS-B
Sat 07:00:59 PM 33.3920 -81.0440 31° Northeast 426 490 37,000  Descending FlightAware ADS-B
Sat 07:01:35 PM 33.4500 -81.0010 32° Northeast 426 490 37,100 90 Climbing FlightAware ADS-B
Sat 07:02:06 PM 33.5060 -80.9600 31° Northeast 423 487 37,100 -88 Level FlightAware ADS-B
Sat 07:02:43 PM 33.5680 -80.9150 31° Northeast 422 486 37,000 -118 Descending FlightAware ADS-B
Sat 07:02:57 PM 33.5890 -80.8990 32° Northeast 423 487 37,000  Level FlightAware ADS-B
Sat 07:03:55 PM 33.6819 -80.8358 32° Northeast 423 487 37,000  Level Jacksonville Center
Sat 07:09:30 PM 34.2480 -80.4100 32° Northeast 424 488 37,000  Level FlightAware ADS-B
Sat 07:09:32 PM 34.2490 -80.4090 40° Northeast 424 488 37,000  Level FlightAware ADS-B
Sat 07:09:46 PM 34.2750 -80.3900 31° Northeast 424 488 37,000  Level FlightAware ADS-B
Sat 07:11:20 PM 34.4300 -80.2730 32° Northeast 420 483 37,000 49 Level FlightAware ADS-B
Sat 07:11:48 PM 34.4770 -80.2390 31° Northeast 418 481 37,100  Climbing FlightAware ADS-B
Sat 07:11:56 PM 34.4900 -80.2280 35° Northeast 418 481 37,000 -250 Descending FlightAware ADS-B
Sat 07:12:12 PM 34.5150 -80.2090 32° Northeast 417 480 37,000  Level FlightAware ADS-B
Sat 07:12:24 PM 34.5360 -80.1940 30° Northeast 417 480 37,000  Level FlightAware ADS-B
Sat 07:12:32 PM 34.5480 -80.1850 32° Northeast 417 480 37,000  Level FlightAware ADS-B
Sat 07:13:40 PM 34.6600 -80.1000 32° Northeast 416 479 37,000  Level FlightAware ADS-B
Sat 07:14:16 PM 34.7180 -80.0560 32° Northeast 417 480 37,000 88 Level FlightAware ADS-B
Sat 07:14:48 PM 34.7710 -80.0150 32° Northeast 417 480 37,100 86 Climbing FlightAware ADS-B
Sat 07:15:26 PM 34.8330 -79.9690 31° Northeast 415 478 37,100  Level FlightAware ADS-B
Sat 07:16:02 PM 34.8910 -79.9240 32° Northeast 413 475 37,100  Level FlightAware ADS-B
Sat 07:16:34 PM 34.9430 -79.8850 32° Northeast 412 474 37,100 -88 Level FlightAware ADS-B
Sat 07:17:10 PM 35.0020 -79.8390 33° Northeast 411 473 37,000 -67 Descending FlightAware ADS-B
Sat 07:18:04 PM 35.0800 -79.7790 32° Northeast 411 473 37,000  Level FlightAware ADS-B
Sat 07:18:42 PM 35.1450 -79.7290 32° Northeast 633 728 37,000  Level FlightAware ADS-B
Sat 07:19:12 PM 35.1930 -79.6930 32° Northeast 407 468 37,000  Level FlightAware ADS-B
Sat 07:19:52 PM 35.2540 -79.6460 32° Northeast 414 476 37,000 85 Level FlightAware ADS-B
Sat 07:20:23 PM 35.3050 -79.6060 33° Northeast 417 480 37,100 86 Climbing FlightAware ADS-B
Sat 07:21:02 PM 35.3750 -79.5520 32° Northeast 416 479 37,100  Level FlightAware ADS-B
Sat 07:21:37 PM 35.4310 -79.5080 33° Northeast 417 480 37,100  Level FlightAware ADS-B
Sat 07:22:17 PM 35.4970 -79.4570 32° Northeast 417 480 37,100  Level FlightAware ADS-B
Sat 07:22:52 PM 35.5510 -79.4160 32° Northeast 408 470 37,100  Level FlightAware ADS-B
Sat 07:23:27 PM 35.6070 -79.3720 33° Northeast 406 467 37,100  Level FlightAware ADS-B
Sat 07:24:02 PM 35.6660 -79.3260 32° Northeast 402 463 37,100 -86 Level FlightAware ADS-B
Sat 07:24:37 PM 35.7180 -79.2850 33° Northeast 401 461 37,000 -86 Descending FlightAware ADS-B
Sat 07:25:12 PM 35.7780 -79.2380 32° Northeast 406 467 37,000  Level FlightAware ADS-B
Sat 07:25:47 PM 35.8320 -79.1960 32° Northeast 405 466 37,000  Level FlightAware ADS-B
Sat 07:26:22 PM 35.8880 -79.1520 32° Northeast 405 466 37,000  Level FlightAware ADS-B
Sat 07:26:57 PM 35.9430 -79.1090 32° Northeast 400 460 37,000  Level FlightAware ADS-B
Sat 07:27:32 PM 35.9980 -79.0650 33° Northeast 403 464 37,000  Level FlightAware ADS-B
Sat 07:28:07 PM 36.0550 -79.0200 33° Northeast 404 465 37,000 86 Level FlightAware ADS-B
Sat 07:28:42 PM 36.1110 -78.9760 32° Northeast 406 467 37,100 71 Climbing FlightAware ADS-B
Sat 07:29:32 PM 36.1950 -78.9090 33° Northeast 416 479 37,100  Level FlightAware ADS-B
Sat 07:30:08 PM 36.2530 -78.8630 33° Northeast 417 480 37,100  Level FlightAware ADS-B
Sat 07:30:42 PM 36.3080 -78.8190 33° Northeast 417 480 37,100  Level FlightAware ADS-B
Sat 07:31:19 PM 36.3660 -78.7730 33° Northeast 417 480 37,100  Level FlightAware ADS-B
Sat 07:31:50 PM 36.4190 -78.7310 33° Northeast 416 479 37,100  Level FlightAware ADS-B
Sat 07:32:26 PM 36.4770 -78.6850 33° Northeast 415 478 37,100  Level FlightAware ADS-B
Sat 07:33:04 PM 36.5380 -78.6350 33° Northeast 414 476 37,100 -176 Level FlightAware ADS-B
Sat 07:33:34 PM 36.5860 -78.5970 32° Northeast 414 476 36,900 -429 Descending FlightAware ADS-B
Sat 07:34:14 PM 36.6500 -78.5450 33° Northeast 409 471 36,600 -486 Descending FlightAware ADS-B
Sat 07:34:48 PM 36.7030 -78.5030 32° Northeast 409 471 36,300 -390 Descending FlightAware ADS-B
Sat 07:35:31 PM 36.7670 -78.4520 33° Northeast 410 472 36,100 -152 Descending FlightAware ADS-B
Sat 07:36:07 PM 36.8160 -78.4140 32° Northeast 410 472 36,100  Level FlightAware ADS-B
Sat 07:36:43 PM 36.8650 -78.3760 32° Northeast 410 472 36,100  Level FlightAware ADS-B
Sat 07:37:20 PM 36.9160 -78.3360 32° Northeast 410 472 36,100 -1,169 Level FlightAware ADS-B
Sat 07:38:00 PM 37.0010 -78.2620 35° Northeast 406 467 34,600 -1,800 Descending FlightAware ADS-B
Sat 07:38:30 PM 37.0570 -78.2160 33° Northeast 406 467 34,000 -871 Descending FlightAware ADS-B
Sat 07:39:02 PM 37.1070 -78.1750 33° Northeast 406 467 33,700 -604 Descending FlightAware ADS-B
Sat 07:40:59 PM 37.2910 -78.0240 33° Northeast 403 464 32,500 -588 Descending FlightAware ADS-B
Sat 07:41:35 PM 37.3450 -77.9800 33° Northeast 403 464 32,200 -529 Descending FlightAware ADS-B
Sat 07:42:07 PM 37.3970 -77.9370 33° Northeast 402 463 31,900 -618 Descending FlightAware ADS-B
Sat 07:42:43 PM 37.4510 -77.8920 33° Northeast 402 463 31,500 -667 Descending FlightAware ADS-B
Sat 07:43:19 PM 37.5070 -77.8460 33° Northeast 401 461 31,100 -411 Descending FlightAware ADS-B
Sat 07:43:56 PM 37.5630 -77.7980 34° Northeast 394 453 31,000 -87 Descending FlightAware ADS-B
Sat 07:44:28 PM 37.6120 -77.7530 36° Northeast 394 453 31,000  Level FlightAware ADS-B
Sat 07:45:02 PM 37.6620 -77.7080 35° Northeast 395 455 31,000  Level FlightAware ADS-B
Sat 07:45:40 PM 37.7190 -77.6560 36° Northeast 396 456 31,000  Level FlightAware ADS-B
Sat 07:46:12 PM 37.7670 -77.6130 35° Northeast 397 457 31,000 88 Level FlightAware ADS-B
Sat 07:46:48 PM 37.8210 -77.5630 36° Northeast 398 458 31,100 82 Climbing FlightAware ADS-B
Sat 07:47:25 PM 37.8740 -77.5150 36° Northeast 399 459 31,100  Level FlightAware ADS-B
Sat 07:48:01 PM 37.9300 -77.4640 36° Northeast 399 459 31,100  Level FlightAware ADS-B
Sat 07:48:37 PM 37.9830 -77.4150 36° Northeast 398 458 31,100  Level FlightAware ADS-B
Sat 07:49:09 PM 38.0310 -77.3710 36° Northeast 397 457 31,100 -88 Level FlightAware ADS-B
Sat 07:49:45 PM 38.0840 -77.3230 35° Northeast 396 456 31,000 -83 Descending FlightAware ADS-B
Sat 07:50:21 PM 38.1380 -77.2740 36° Northeast 395 455 31,000  Level FlightAware ADS-B
Sat 07:50:53 PM 38.1860 -77.2290 36° Northeast 397 457 31,000  Level FlightAware ADS-B
Sat 07:51:29 PM 38.2400 -77.1790 36° Northeast 397 457 31,000  Level FlightAware ADS-B
Sat 07:52:05 PM 38.2930 -77.1300 36° Northeast 397 457 31,000  Level FlightAware ADS-B
Sat 07:52:41 PM 38.3460 -77.0810 36° Northeast 398 458 31,000  Level FlightAware ADS-B
Sat 07:53:13 PM 38.3940 -77.0370 36° Northeast 398 458 31,000  Level FlightAware ADS-B
Sat 07:53:49 PM 38.4480 -76.9860 36° Northeast 399 459 31,000 -1,151 Level FlightAware ADS-B
Sat 07:54:26 PM 38.5020 -76.9360 36° Northeast 401 461 29,600 -2,912 Descending FlightAware ADS-B
Sat 07:54:57 PM 38.5500 -76.8910 36° Northeast 414 476 27,700 -3,000 Descending FlightAware ADS-B
Sat 07:55:34 PM 38.6060 -76.8390 36° Northeast 416 479 26,200 -2,270 Descending FlightAware ADS-B
Sat 07:56:11 PM 38.6640 -76.7840 37° Northeast 406 467 24,900 -2,000 Descending FlightAware ADS-B
Sat 07:56:31 PM 38.6930 -76.7520 41° Northeast 405 466 24,300 -1,333 Descending FlightAware ADS-B
Sat 07:56:47 PM 38.7090 -76.7200 57° Northeast 415 478 24,100 -750 Descending FlightAware ADS-B
Sat 07:57:19 PM 38.7270 -76.6430 73° East 442 509 23,700 -1,235 Descending FlightAware ADS-B
Sat 07:57:55 PM 38.7460 -76.5520 75° East 433 498 22,700 -2,167 Descending FlightAware ADS-B
Sat 07:58:31 PM 38.7640 -76.4640 75° East 424 488 21,100 -2,471 Descending FlightAware ADS-B
Sat 07:59:03 PM 38.7800 -76.3890 75° East 413 475 19,900 -2,294 Descending FlightAware ADS-B
Sat 07:59:39 PM 38.7980 -76.3040 75° East 404 465 18,500 -2,294 Descending FlightAware ADS-B
Sat 08:00:11 PM 38.8120 -76.2320 76° East 398 458 17,300 -1,875 Descending FlightAware ADS-B
Sat 08:01:31 PM 38.8478 -76.0608 76° East 397 457 15,000 -986 Descending Washington Center
Sat 08:02:31 PM 38.8733 -75.9303 76° East 385 443 15,000  Level Washington Center
Sat 08:03:29 PM 38.9361 -75.8264 52° Northeast 367 422 15,000 -314 Level Washington Center
Sat 08:05:04 PM 39.0833 -75.7500 22° Northeast 373 429 14,200 -886 Descending Philadelphia TRACON
Sat 08:05:58 PM 39.1833 -75.7167 14° North 354 407 12,800 -1,105 Descending Philadelphia TRACON
Sat 08:06:58 PM 39.2500 -75.6667 30° Northeast 308 354 12,100 -400 Descending Philadelphia TRACON
Sat 08:07:58 PM 39.3333 -75.6000 32° Northeast 320 368 12,000 -53 Descending Philadelphia TRACON
Sat 08:08:52 PM 39.4000 -75.5500 30° Northeast 318 366 12,000  Level Philadelphia TRACON
Sat 08:09:52 PM 39.4667 -75.4833 38° Northeast 320 368 12,000  Level Philadelphia TRACON
Sat 08:10:52 PM 39.5500 -75.4167 32° Northeast 319 367 12,000  Level Philadelphia TRACON
Sat 08:11:52 PM 39.6167 -75.3667 30° Northeast 320 368 12,000 -450 Level Philadelphia TRACON
Sat 08:12:52 PM 39.7000 -75.3000 32° Northeast 294 338 11,100 -950 Descending Philadelphia TRACON
Sat 08:13:52 PM 39.7667 -75.2500 30° Northeast 296 341 10,100 -950 Descending Philadelphia TRACON
Sat 08:14:52 PM 39.8333 -75.1833 38° Northeast 289 333 9,200 -841 Descending Philadelphia TRACON
Sat 08:20:03 PM 40.1180 -74.9460 38° Northeast 231 266 4,900 -763 Descending FlightAware ADS-B
Sat 08:20:30 PM 40.1390 -74.9290 32° Northeast 231 266 4,900 -1,320 Level FlightAware ADS-B
Sat 08:20:53 PM 40.1650 -74.9080 32° Northeast 232 267 3,800 -2,000 Descending FlightAware ADS-B
Sat 08:21:15 PM 40.1850 -74.8910 33° Northeast 227 261 3,400 -1,116 Descending FlightAware ADS-B
Sat 08:21:36 PM 40.2030 -74.8750 34° Northeast 219 252 3,000 -1,333 Descending FlightAware ADS-B
Sat 08:21:51 PM 40.2150 -74.8610 42° Northeast 216 249 2,600 -1,500 Descending FlightAware ADS-B
Sat 08:22:16 PM 40.2340 -74.8300 51° Northeast 207 238 2,000 -1,395 Descending FlightAware ADS-B
Sat 08:22:34 PM 40.2470 -74.8050 56° Northeast 196 226 1,600 -818 Descending FlightAware ADS-B
Sat 08:23:00 PM 40.2590 -74.7780 60° Northeast 187 215 1,400 -391 Descending FlightAware ADS-B
Sat 08:23:20 PM 40.2670 -74.7610 58° Northeast 164 189 1,300 -300 Descending FlightAware ADS-B
Sat 08:23:40 PM 40.2760 -74.7460 52° Northeast 159 183 1,200 -207 Descending FlightAware ADS-B
Sat 08:23:49 PM 40.2810 -74.7440 17° North 155 178 1,200  Level FlightAware ADS-B
Sat 08:23:51 PM 40.2830 -74.7440 360° North 152 175 1,200 -462 Level FlightAware ADS-B
Sat 08:24:15 PM 40.2960 -74.7540 330° Northwest 144 166 1,000 -514 Descending FlightAware ADS-B
Sat 08:24:26 PM 40.3000 -74.7620 303° West 138 159 900 -706 Descending FlightAware ADS-B
Sat 08:24:32 PM 40.3010 -74.7660 288° West 128 147 800 -182 Descending FlightAware ADS-B
Sat 08:24:59 PM 40.3040 -74.7830 283° West 128 147 800 -414 Level FlightAware ADS-B
Sat 08:25:01 PM 40.2950 -74.7870 199° South 124 143 600 -429 Descending FlightAware ADS-B
Sat 08:25:27 PM 40.2870 -74.8000 231° Southwest 124 143 600  Level FlightAware ADS-B
Sat 08:32:00 PM 40.2667 -74.8000 246° West  Level FlightAware Approximate
Sat 08:33:00 PM 40.2767 -74.8135 246° West  Level Estimated

Login

Don't have an account? Register now (free) for customized features, flight alerts, and more!